Time;durP1;ratioP1;P1;durP2;ratioP2;P2;SDS_P1;SDS_P2;PMS_P1;PMS_P2;Temp;Humidity;BMP_temperature;BMP_pressure;BME280_temperature;BME280_humidity;BME280_pressure;Samples;Min_cycle;Max_cycle;Signal;HPM_P1;HPM_P2
2021/12/23 00:00:02;;;;;;;;;;;;;;;21.54;17.87;98871.44;4880055;29;1031;-75
2021/12/23 00:02:34;;;;;;;;;;;;;;;21.58;17.49;98868.56;4853603;29;1021;-75
2021/12/23 00:04:59;;;;;;;;;;;;;;;21.52;17.53;98873.13;4965562;28;964;-76
2021/12/23 00:07:25;;;;;;;;;;;;;;;21.11;17.98;98876.78;4996836;28;888;-74
2021/12/23 00:12:25;;;;;;;;;;;;;;;21.62;17.92;98877.84;4996670;28;943;-75
2021/12/23 00:14:51;;;;;;;;;;;;;;;21.68;17.83;98876.13;4996839;28;1975;-75
2021/12/23 00:25:16;;;;;;;;;;;;;;;21.04;18.38;98872.00;5000099;28;939;-75
2021/12/23 00:27:41;;;;;;;;;;;;;;;21.11;18.46;98882.44;4983366;28;1031;-75
2021/12/23 00:30:07;;;;;;;;;;;;;;;21.17;18.24;98874.28;4997502;28;1099;-75
2021/12/23 00:32:32;;;;;;;;;;;;;;;21.06;18.20;98880.06;5000441;28;864;-74
2021/12/23 00:34:58;;;;;;;;;;;;;;;20.89;18.44;98881.06;5000028;28;1979;-75
2021/12/23 00:37:23;;;;;;;;;;;;;;;21.01;18.32;98889.03;5000053;28;916;-74
2021/12/23 00:39:49;;;;;;;;;;;;;;;21.36;17.84;98887.88;5000415;28;975;-75
2021/12/23 00:42:14;;;;;;;;;;;;;;;21.26;18.15;98878.22;5000173;28;937;-75
2021/12/23 00:44:45;;;;;;;;;;;;;;;21.22;18.05;98877.47;4978206;28;989;-75
2021/12/23 00:47:10;;;;;;;;;;;;;;;21.57;17.50;98881.13;4978577;28;988;-75
2021/12/23 00:49:35;;;;;;;;;;;;;;;21.46;17.92;98881.28;4958785;29;1074;-75
2021/12/23 00:52:03;;;;;;;;;;;;;;;21.79;17.49;98882.47;4958837;29;1003;-75
2021/12/23 00:54:29;;;;;;;;;;;;;;;21.56;17.93;98871.84;4920618;29;1902;-75
2021/12/23 00:56:54;;;;;;;;;;;;;;;22.15;17.01;98879.16;4901843;29;1190;-75
2021/12/23 00:59:19;;;;;;;;;;;;;;;21.45;17.65;98876.00;4901499;29;979;-74
2021/12/23 01:01:46;;;;;;;;;;;;;;;21.65;17.47;98874.13;4902042;29;1053;-75
2021/12/23 01:04:12;;;;;;;;;;;;;;;21.13;17.97;98863.00;4901970;29;1095;-75
2021/12/23 01:06:37;;;;;;;;;;;;;;;20.57;18.50;98876.47;4901683;29;927;-75
2021/12/23 01:09:03;;;;;;;;;;;;;;;21.12;18.23;98877.59;4901405;29;1029;-75
2021/12/23 01:11:28;;;;;;;;;;;;;;;21.52;17.81;98875.94;4901745;29;987;-75
2021/12/23 01:14:13;;;;;;;;;;;;;;;20.89;18.35;98864.09;4901368;29;1022;-74
2021/12/23 01:16:59;;;;;;;;;;;;;;;21.70;17.50;98858.72;4884610;29;984;-75
2021/12/23 01:19:25;;;;;;;;;;;;;;;21.20;18.07;98860.13;4883234;29;1097;-75
2021/12/23 01:21:51;;;;;;;;;;;;;;;21.75;17.42;98859.03;4904288;29;1181;-75
2021/12/23 01:24:16;;;;;;;;;;;;;;;21.87;17.48;98862.53;4912544;29;1288;-75
2021/12/23 01:26:42;;;;;;;;;;;;;;;21.31;18.08;98866.47;4941062;28;964;-75
2021/12/23 01:29:07;;;;;;;;;;;;;;;21.72;17.44;98865.56;4977514;28;968;-75
2021/12/23 01:31:33;;;;;;;;;;;;;;;21.27;17.95;98862.84;4977514;28;1038;-74
2021/12/23 01:33:59;;;;;;;;;;;;;;;21.84;17.16;98862.16;4977849;28;1171;-75
2021/12/23 01:36:24;;;;;;;;;;;;;;;21.45;17.82;98873.19;4977591;28;1965;-75
2021/12/23 01:38:50;;;;;;;;;;;;;;;21.22;17.89;98865.34;4977568;28;916;-75
2021/12/23 01:41:15;;;;;;;;;;;;;;;21.71;17.27;98852.63;4977301;28;938;-75
2021/12/23 01:43:41;;;;;;;;;;;;;;;21.53;17.69;98857.72;4977597;28;1016;-75
2021/12/23 01:46:06;;;;;;;;;;;;;;;21.33;17.91;98855.53;4977289;28;1110;-75
2021/12/23 01:48:32;;;;;;;;;;;;;;;21.27;17.95;98850.72;4957667;29;978;-75
2021/12/23 01:50:57;;;;;;;;;;;;;;;20.89;18.42;98855.59;4958177;29;953;-75
2021/12/23 01:53:23;;;;;;;;;;;;;;;21.45;17.63;98850.53;4910319;29;1054;-75
2021/12/23 01:55:48;;;;;;;;;;;;;;;21.44;17.72;98846.09;4986419;28;1974;-75
2021/12/23 01:58:14;;;;;;;;;;;;;;;21.36;18.01;98844.59;4996549;28;1003;-75
2021/12/23 02:00:40;;;;;;;;;;;;;;;21.54;17.79;98848.00;4976793;28;921;-75
2021/12/23 02:03:06;;;;;;;;;;;;;;;21.57;17.52;98852.81;4938398;29;1163;-75
2021/12/23 02:05:31;;;;;;;;;;;;;;;21.19;17.84;98855.69;4938250;29;910;-75
2021/12/23 02:07:57;;;;;;;;;;;;;;;21.65;17.47;98854.31;4938505;29;1038;-75
2021/12/23 02:10:23;;;;;;;;;;;;;;;21.41;18.00;98855.47;4938604;29;1016;-75
2021/12/23 02:12:48;;;;;;;;;;;;;;;21.25;17.96;98854.00;4900591;29;952;-74
2021/12/23 02:15:14;;;;;;;;;;;;;;;21.35;18.07;98851.47;4900290;29;1985;-75
2021/12/23 02:17:40;;;;;;;;;;;;;;;21.23;17.83;98850.75;4900405;29;976;-75
2021/12/23 02:20:07;;;;;;;;;;;;;;;21.99;17.47;98856.28;4900508;29;950;-75
2021/12/23 02:22:32;;;;;;;;;;;;;;;21.93;17.38;98858.81;4900577;29;1119;-75
2021/12/23 02:24:58;;;;;;;;;;;;;;;21.86;17.49;98858.88;4900406;29;1067;-75
2021/12/23 02:27:23;;;;;;;;;;;;;;;21.64;17.70;98858.38;4900372;29;1035;-75
2021/12/23 02:29:48;;;;;;;;;;;;;;;21.81;17.41;98854.53;4900104;29;1057;-75
2021/12/23 02:32:14;;;;;;;;;;;;;;;21.50;17.92;98853.72;4900234;29;912;-75
2021/12/23 02:34:39;;;;;;;;;;;;;;;21.36;17.98;98858.75;4927856;29;1902;-75
2021/12/23 02:37:05;;;;;;;;;;;;;;;21.54;17.81;98854.47;4938132;29;954;-75
2021/12/23 02:39:30;;;;;;;;;;;;;;;21.41;17.96;98861.91;4937565;29;961;-75
2021/12/23 02:41:56;;;;;;;;;;;;;;;21.47;17.92;98853.75;4938038;29;1025;-75
2021/12/23 02:44:21;;;;;;;;;;;;;;;21.05;18.45;98856.63;4981898;28;982;-75
2021/12/23 02:46:47;;;;;;;;;;;;;;;21.20;18.22;98862.94;4998042;28;912;-75
2021/12/23 02:49:12;;;;;;;;;;;;;;;21.18;18.42;98856.88;4997979;28;901;-75
2021/12/23 02:51:38;;;;;;;;;;;;;;;21.62;17.89;98857.22;4997445;28;865;-75
2021/12/23 02:54:03;;;;;;;;;;;;;;;21.52;17.94;98861.78;4997848;28;910;-75
2021/12/23 02:56:29;;;;;;;;;;;;;;;21.58;17.77;98860.09;4997588;28;1914;-75
2021/12/23 02:58:54;;;;;;;;;;;;;;;21.68;17.56;98864.81;4997813;28;914;-75
2021/12/23 03:01:20;;;;;;;;;;;;;;;21.73;17.62;98860.69;4947156;28;979;-75
2021/12/23 03:03:45;;;;;;;;;;;;;;;21.22;18.00;98860.47;4997471;28;1037;-75
2021/12/23 03:06:11;;;;;;;;;;;;;;;21.53;18.01;98864.19;4997391;28;941;-75
2021/12/23 03:08:44;;;;;;;;;;;;;;;21.66;17.48;98860.78;4997355;28;910;-75
2021/12/23 03:11:11;;;;;;;;;;;;;;;21.65;17.78;98868.47;4997452;28;967;-75
2021/12/23 03:13:36;;;;;;;;;;;;;;;21.55;17.89;98872.25;4997050;28;967;-75
2021/12/23 03:16:02;;;;;;;;;;;;;;;21.35;17.82;98868.44;4997673;28;1906;-75
2021/12/23 03:18:28;;;;;;;;;;;;;;;21.51;17.84;98874.34;4997419;28;865;-75
2021/12/23 03:20:54;;;;;;;;;;;;;;;21.38;18.00;98876.09;4997347;28;954;-75
2021/12/23 03:23:19;;;;;;;;;;;;;;;21.27;17.95;98879.84;4979413;28;1107;-75
2021/12/23 03:25:45;;;;;;;;;;;;;;;22.01;17.47;98882.16;4994756;28;1023;-75
2021/12/23 03:28:10;;;;;;;;;;;;;;;22.26;17.09;98874.13;4995131;28;1096;-75
2021/12/23 03:30:36;;;;;;;;;;;;;;;21.84;17.28;98884.81;4975185;28;950;-75
2021/12/23 03:33:01;;;;;;;;;;;;;;;21.35;17.88;98879.78;4975305;28;1058;-75
2021/12/23 03:35:27;;;;;;;;;;;;;;;21.78;17.65;98880.06;4955875;29;1906;-75
2021/12/23 03:37:53;;;;;;;;;;;;;;;22.50;16.68;98880.63;4956176;29;1153;-75
2021/12/23 03:40:19;;;;;;;;;;;;;;;22.52;16.75;98888.69;4956290;29;957;-75
2021/12/23 03:42:44;;;;;;;;;;;;;;;22.31;17.07;98884.97;4955781;28;992;-75
2021/12/23 03:45:12;;;;;;;;;;;;;;;22.51;16.96;98881.44;4917794;29;1004;-75
2021/12/23 03:47:37;;;;;;;;;;;;;;;22.99;16.30;98888.72;4917672;29;1233;-75
2021/12/23 03:50:03;;;;;;;;;;;;;;;22.43;16.92;98889.25;4900985;29;988;-75
2021/12/23 03:52:29;;;;;;;;;;;;;;;22.21;17.40;98885.94;4917660;29;1264;-74
2021/12/23 03:54:54;;;;;;;;;;;;;;;22.05;17.26;98889.38;4931545;29;1903;-75
2021/12/23 03:57:19;;;;;;;;;;;;;;;21.91;17.56;98895.25;4936489;29;977;-75
2021/12/23 03:59:45;;;;;;;;;;;;;;;22.31;16.94;98899.16;4898725;29;978;-75
2021/12/23 04:02:10;;;;;;;;;;;;;;;22.33;17.07;98893.06;4898581;29;997;-75
2021/12/23 04:04:36;;;;;;;;;;;;;;;22.56;16.86;98895.94;4824585;29;927;-75
2021/12/23 04:07:01;;;;;;;;;;;;;;;22.33;16.86;98893.88;4826252;29;956;-75
2021/12/23 04:09:27;;;;;;;;;;;;;;;22.35;17.18;98896.28;4827288;29;971;-75
2021/12/23 04:11:52;;;;;;;;;;;;;;;22.24;17.13;98898.47;4843037;29;963;-75
2021/12/23 04:14:18;;;;;;;;;;;;;;;22.51;16.83;98898.44;4827292;29;1911;-75
2021/12/23 04:16:43;;;;;;;;;;;;;;;22.76;16.31;98886.69;4843098;29;917;-75
2021/12/23 04:19:10;;;;;;;;;;;;;;;21.61;17.45;98898.91;4842653;29;1211;-75
2021/12/23 04:21:36;;;;;;;;;;;;;;;21.57;18.04;98895.31;4844434;29;1033;-75
2021/12/23 04:24:04;;;;;;;;;;;;;;;22.02;17.42;98895.09;4861386;29;1273;-75
2021/12/23 04:26:29;;;;;;;;;;;;;;;22.12;17.28;98905.50;4861107;29;985;-75
2021/12/23 04:28:54;;;;;;;;;;;;;;;21.72;17.83;98910.09;4842911;29;969;-75
2021/12/23 04:31:21;;;;;;;;;;;;;;;21.54;17.75;98904.63;4843178;29;979;-75
2021/12/23 04:33:46;;;;;;;;;;;;;;;21.26;18.16;98900.88;4805867;29;1107;-75
2021/12/23 04:36:12;;;;;;;;;;;;;;;21.42;17.99;98906.00;4846069;29;1974;-75
2021/12/23 04:38:38;;;;;;;;;;;;;;;21.49;18.02;98905.91;4879504;29;1087;-75
2021/12/23 04:41:03;;;;;;;;;;;;;;;22.07;17.41;98903.94;4879773;29;1117;-75
2021/12/23 04:43:29;;;;;;;;;;;;;;;22.15;17.40;98899.00;4879726;29;1070;-75
2021/12/23 04:45:54;;;;;;;;;;;;;;;22.26;17.26;98899.63;4879644;29;1073;-75
2021/12/23 04:48:19;;;;;;;;;;;;;;;21.96;17.40;98885.47;4879281;29;998;-75
2021/12/23 04:50:45;;;;;;;;;;;;;;;21.79;17.51;98893.00;4879431;29;935;-75
2021/12/23 04:53:10;;;;;;;;;;;;;;;21.78;17.84;98886.53;4879672;29;1015;-75
2021/12/23 04:55:38;;;;;;;;;;;;;;;21.32;18.09;98892.75;4879214;29;1903;-75
2021/12/23 04:58:03;;;;;;;;;;;;;;;21.52;18.08;98892.94;4879518;29;1029;-75
2021/12/23 05:00:29;;;;;;;;;;;;;;;21.81;17.89;98888.53;4879676;29;1015;-74
2021/12/23 05:02:54;;;;;;;;;;;;;;;21.91;17.61;98894.44;4867280;29;1045;-75
2021/12/23 05:05:20;;;;;;;;;;;;;;;21.60;18.04;98891.59;4912359;29;1002;-75
2021/12/23 05:07:45;;;;;;;;;;;;;;;21.44;17.96;98888.56;4982063;28;1026;-75
2021/12/23 05:10:11;;;;;;;;;;;;;;;21.37;17.97;98888.66;4972421;28;975;-75
2021/12/23 05:12:42;;;;;;;;;;;;;;;21.45;17.86;98879.69;4977707;28;1070;-75
2021/12/23 05:15:11;;;;;;;;;;;;;;;21.60;17.86;98891.59;4977539;28;1983;-75
2021/12/23 05:17:39;;;;;;;;;;;;;;;21.74;17.77;98899.13;4926124;29;1042;-75
2021/12/23 05:20:05;;;;;;;;;;;;;;;21.67;17.71;98888.69;4958203;29;979;-75
2021/12/23 05:22:33;;;;;;;;;;;;;;;22.03;17.47;98896.72;4958292;29;953;-75
2021/12/23 05:24:59;;;;;;;;;;;;;;;21.80;17.63;98894.59;4901174;29;1369;-75
2021/12/23 05:27:24;;;;;;;;;;;;;;;22.59;16.79;98888.59;4901258;29;1037;-75
2021/12/23 05:29:50;;;;;;;;;;;;;;;22.45;17.03;98891.66;4900982;29;948;-75
2021/12/23 05:32:15;;;;;;;;;;;;;;;22.38;16.77;98894.59;4901266;29;937;-75
2021/12/23 05:34:41;;;;;;;;;;;;;;;22.39;17.03;98896.22;4900943;29;1960;-75
2021/12/23 05:37:06;;;;;;;;;;;;;;;22.45;16.82;98900.19;4900893;29;962;-75
2021/12/23 05:39:31;;;;;;;;;;;;;;;22.21;17.30;98908.63;4901110;29;1033;-75
2021/12/23 05:41:57;;;;;;;;;;;;;;;22.83;16.33;98898.72;4916652;29;938;-75
2021/12/23 05:44:22;;;;;;;;;;;;;;;21.82;17.69;98898.63;4919919;29;1086;-75
2021/12/23 05:46:48;;;;;;;;;;;;;;;21.66;17.60;98906.94;4920001;29;1005;-75
2021/12/23 05:49:13;;;;;;;;;;;;;;;22.30;17.17;98897.56;4948804;29;1089;-75
2021/12/23 05:51:42;;;;;;;;;;;;;;;21.44;17.79;98903.53;4957811;29;1106;-75
2021/12/23 05:54:07;;;;;;;;;;;;;;;21.28;17.76;98921.06;4957753;29;999;-75
2021/12/23 05:56:40;;;;;;;;;;;;;;;21.47;17.61;98922.50;5002493;28;1977;-75
2021/12/23 05:59:06;;;;;;;;;;;;;;;21.25;17.89;98921.13;4999782;28;1109;-75
2021/12/23 06:01:31;;;;;;;;;;;;;;;21.51;17.62;98928.16;5018435;28;1024;-75
2021/12/23 06:03:59;;;;;;;;;;;;;;;20.96;17.96;98932.72;5018713;28;921;-75
2021/12/23 06:06:25;;;;;;;;;;;;;;;21.05;18.26;98923.75;5018421;28;983;-75
2021/12/23 06:08:50;;;;;;;;;;;;;;;21.47;17.76;98933.03;5018397;28;933;-74
2021/12/23 06:11:16;;;;;;;;;;;;;;;21.54;17.48;98932.94;5017765;28;964;-75
2021/12/23 06:13:41;;;;;;;;;;;;;;;22.17;17.03;98933.38;5017429;28;1033;-74
2021/12/23 06:16:07;;;;;;;;;;;;;;;22.15;16.74;98935.84;5017896;28;1902;-75
2021/12/23 06:18:32;;;;;;;;;;;;;;;21.97;17.33;98938.09;5018120;28;1001;-75
2021/12/23 06:20:57;;;;;;;;;;;;;;;22.23;17.05;98934.53;5017869;28;1011;-75
2021/12/23 06:23:23;;;;;;;;;;;;;;;21.74;17.18;98933.91;5018048;28;1005;-75
2021/12/23 06:25:49;;;;;;;;;;;;;;;21.22;17.89;98938.94;4957102;29;1077;-75
2021/12/23 06:28:14;;;;;;;;;;;;;;;21.16;18.02;98930.09;4956983;29;1008;-75
2021/12/23 06:30:40;;;;;;;;;;;;;;;21.25;18.13;98936.06;4956828;29;995;-75
2021/12/23 06:33:05;;;;;;;;;;;;;;;21.44;17.95;98933.88;4957125;29;1053;-75
2021/12/23 06:35:31;;;;;;;;;;;;;;;21.51;17.82;98940.28;4956998;29;1984;-75
2021/12/23 06:37:56;;;;;;;;;;;;;;;21.30;17.94;98949.00;4957030;29;1005;-75
2021/12/23 06:40:22;;;;;;;;;;;;;;;21.23;17.76;98938.50;4957108;29;1031;-75
2021/12/23 06:42:47;;;;;;;;;;;;;;;22.13;17.01;98941.16;4956946;29;1137;-75
2021/12/23 06:45:13;;;;;;;;;;;;;;;21.78;17.25;98943.19;4956731;29;1136;-74
2021/12/23 06:47:39;;;;;;;;;;;;;;;21.60;17.59;98945.41;4918567;29;1012;-75
2021/12/23 06:50:05;;;;;;;;;;;;;;;21.62;17.84;98957.13;4919151;29;985;-75
2021/12/23 06:52:30;;;;;;;;;;;;;;;22.06;17.16;98958.19;4918972;29;999;-75
2021/12/23 06:54:57;;;;;;;;;;;;;;;21.47;17.71;98950.84;4918454;29;1911;-75
2021/12/23 06:57:23;;;;;;;;;;;;;;;21.31;17.55;98954.22;4960736;28;984;-74
2021/12/23 06:59:49;;;;;;;;;;;;;;;22.05;17.33;98948.09;4976009;28;1028;-75
2021/12/23 07:02:15;;;;;;;;;;;;;;;21.77;17.42;98964.25;4976422;28;1002;-75
2021/12/23 07:04:42;;;;;;;;;;;;;;;21.47;17.48;98955.69;4975910;28;1032;-75
2021/12/23 07:07:12;;;;;;;;;;;;;;;21.92;17.09;98958.41;4976029;28;921;-75
2021/12/23 07:09:38;;;;;;;;;;;;;;;21.59;17.70;98957.97;4975939;28;1037;-75
2021/12/23 07:12:05;;;;;;;;;;;;;;;21.99;17.20;98959.09;4975949;28;1067;-75
2021/12/23 07:14:30;;;;;;;;;;;;;;;21.46;17.77;98959.75;4975414;28;1973;-75
2021/12/23 07:16:55;;;;;;;;;;;;;;;21.58;17.87;98950.72;4975562;28;1056;-75
2021/12/23 07:19:21;;;;;;;;;;;;;;;21.55;17.90;98962.88;5006962;28;961;-75
2021/12/23 07:21:46;;;;;;;;;;;;;;;21.88;17.39;98954.81;5014751;28;936;-75
2021/12/23 07:24:12;;;;;;;;;;;;;;;21.83;17.25;98956.88;5014014;28;1394;-75
2021/12/23 07:26:37;;;;;;;;;;;;;;;21.47;17.98;98955.69;4974846;28;1032;-75
2021/12/23 07:29:05;;;;;;;;;;;;;;;20.67;18.46;98960.41;4975284;28;952;-75
2021/12/23 07:31:30;;;;;;;;;;;;;;;21.13;18.36;98959.22;4975763;28;1006;-75
2021/12/23 07:33:58;;;;;;;;;;;;;;;21.87;17.77;98962.50;4955960;29;1438;-75
2021/12/23 07:36:24;;;;;;;;;;;;;;;21.17;18.01;98960.00;4956000;29;1985;-75
2021/12/23 07:38:49;;;;;;;;;;;;;;;21.85;17.67;98960.09;4955754;28;1035;-75
2021/12/23 07:41:15;;;;;;;;;;;;;;;21.38;18.10;98958.22;4955904;29;1524;-75
2021/12/23 07:46:06;;;;;;;;;;;;;;;21.76;17.67;98962.66;4927243;29;1009;-75
2021/12/23 07:48:31;;;;;;;;;;;;;;;21.52;18.10;98958.06;4917524;29;1015;-75
2021/12/23 07:50:57;;;;;;;;;;;;;;;21.63;17.75;98964.41;4917663;29;998;-75
2021/12/23 07:53:23;;;;;;;;;;;;;;;21.88;17.54;98963.31;4898284;29;1019;-75
2021/12/23 07:55:48;;;;;;;;;;;;;;;21.78;17.55;98957.34;4898794;29;1910;-75
2021/12/23 07:58:15;;;;;;;;;;;;;;;21.60;17.92;98962.41;4899042;29;1155;-75
2021/12/23 08:00:40;;;;;;;;;;;;;;;21.57;17.97;98960.44;4899237;29;978;-75
2021/12/23 08:03:08;;;;;;;;;;;;;;;22.73;16.75;98962.09;4902827;29;1185;-76
2021/12/23 08:05:34;;;;;;;;;;;;;;;22.61;16.81;98959.88;4936870;29;1021;-75
2021/12/23 08:08:00;;;;;;;;;;;;;;;22.29;17.33;98966.84;4880090;29;975;-75
2021/12/23 08:10:25;;;;;;;;;;;;;;;22.47;17.02;98965.75;4827680;29;968;-75
2021/12/23 08:12:51;;;;;;;;;;;;;;;21.98;17.35;98962.38;4829740;29;1055;-75
2021/12/23 08:15:16;;;;;;;;;;;;;;;21.97;17.73;98967.25;4824413;29;1998;-75
2021/12/23 08:17:42;;;;;;;;;;;;;;;21.24;18.30;98954.28;4825065;29;1056;-75
2021/12/23 08:20:07;;;;;;;;;;;;;;;21.95;17.73;98968.88;4806315;29;972;-75
2021/12/23 08:22:33;;;;;;;;;;;;;;;22.14;17.15;98965.41;4792714;29;1118;-75
2021/12/23 08:24:59;;;;;;;;;;;;;;;21.58;18.09;98962.03;4806132;29;1414;-75
2021/12/23 08:27:27;;;;;;;;;;;;;;;21.98;17.53;98963.16;4806728;29;1014;-75
2021/12/23 08:29:52;;;;;;;;;;;;;;;22.22;17.44;98958.41;4792053;29;1010;-75
2021/12/23 08:32:19;;;;;;;;;;;;;;;21.98;17.34;98953.88;4806298;29;1072;-75
2021/12/23 08:34:47;;;;;;;;;;;;;;;21.51;18.09;98950.81;4806185;29;1907;-75
2021/12/23 08:37:12;;;;;;;;;;;;;;;21.72;17.52;98950.53;4808808;29;1256;-75
2021/12/23 08:39:38;;;;;;;;;;;;;;;21.36;18.26;98955.81;4838078;29;1146;-75
2021/12/23 08:42:04;;;;;;;;;;;;;;;21.78;17.82;98946.00;4846251;29;1241;-75
2021/12/23 08:44:29;;;;;;;;;;;;;;;21.85;17.86;98951.59;4853015;29;1010;-74
2021/12/23 08:46:55;;;;;;;;;;;;;;;22.14;17.51;98948.41;4903878;29;1022;-75
2021/12/23 08:49:20;;;;;;;;;;;;;;;21.84;17.69;98941.47;4921225;29;1043;-75
2021/12/23 08:51:46;;;;;;;;;;;;;;;21.23;18.16;98941.34;4950430;29;1039;-75
2021/12/23 08:54:11;;;;;;;;;;;;;;;21.49;18.12;98941.91;4987749;28;1092;-75
2021/12/23 08:56:37;;;;;;;;;;;;;;;22.68;17.10;98948.41;5000274;28;1931;-75
2021/12/23 08:59:02;;;;;;;;;;;;;;;22.21;17.02;98948.31;5000084;28;995;-75
2021/12/23 09:01:28;;;;;;;;;;;;;;;21.91;17.75;98939.78;4978393;28;1005;-75
2021/12/23 09:03:59;;;;;;;;;;;;;;;21.93;17.80;98943.00;4977994;28;1020;-75
2021/12/23 09:06:24;;;;;;;;;;;;;;;21.83;17.92;98934.22;4978433;28;956;-75
2021/12/23 09:08:50;;;;;;;;;;;;;;;22.05;17.61;98937.56;4978160;28;1099;-75
2021/12/23 09:11:16;;;;;;;;;;;;;;;22.09;17.52;98929.03;4978031;28;985;-75
2021/12/23 09:13:42;;;;;;;;;;;;;;;20.75;18.83;98932.91;4977893;28;1050;-75
2021/12/23 09:16:07;;;;;;;;;;;;;;;21.49;18.16;98919.25;4977903;28;1975;-75
2021/12/23 09:18:33;;;;;;;;;;;;;;;21.87;17.82;98917.19;4939662;29;985;-75
2021/12/23 09:20:58;;;;;;;;;;;;;;;21.60;18.08;98908.59;4939561;29;911;-75
2021/12/23 09:23:24;;;;;;;;;;;;;;;21.78;18.01;98906.34;4939225;29;1186;-75
2021/12/23 09:25:50;;;;;;;;;;;;;;;21.72;18.03;98904.44;4957034;29;1067;-75
2021/12/23 09:28:31;;;;;;;;;;;;;;;20.66;18.97;98902.25;4958714;29;971;-75
2021/12/23 09:33:54;;;;;;;;;;;;;;;21.10;18.70;98900.66;4882374;29;1024;-75
2021/12/23 09:36:19;;;;;;;;;;;;;;;21.26;18.53;98895.22;4882551;29;2033;-75
2021/12/23 09:38:47;;;;;;;;;;;;;;;21.07;18.78;98893.00;4882336;29;1025;-75
2021/12/23 09:41:17;;;;;;;;;;;;;;;21.01;18.73;98897.50;4882647;29;933;-76
2021/12/23 09:43:43;;;;;;;;;;;;;;;20.64;19.10;98901.88;4882279;29;1070;-74
2021/12/23 09:46:09;;;;;;;;;;;;;;;21.37;18.28;98897.97;4882629;29;980;-75
2021/12/23 09:48:35;;;;;;;;;;;;;;;21.36;18.41;98889.91;4887392;29;940;-74
2021/12/23 09:51:01;;;;;;;;;;;;;;;21.12;18.79;98894.56;4939312;29;1018;-74
2021/12/23 09:53:27;;;;;;;;;;;;;;;20.36;19.59;98885.09;4939117;29;1047;-75
2021/12/23 09:55:54;;;;;;;;;;;;;;;21.12;18.72;98889.69;4939021;29;1978;-74
2021/12/23 09:58:21;;;;;;;;;;;;;;;21.03;19.07;98887.34;4923049;29;1183;-75
2021/12/23 10:00:47;;;;;;;;;;;;;;;21.61;18.56;98886.78;4938896;29;1077;-74
2021/12/23 10:03:18;;;;;;;;;;;;;;;21.00;19.14;98881.75;4938840;29;1105;-74
2021/12/23 10:05:44;;;;;;;;;;;;;;;21.37;18.46;98871.69;4938969;29;998;-74
2021/12/23 10:08:11;;;;;;;;;;;;;;;21.49;18.70;98874.75;4890980;29;1052;-74
2021/12/23 10:10:58;;;;;;;;;;;;;;;22.52;17.69;98872.47;4956077;29;959;-74
2021/12/23 10:33:28;;;;;;;;;;;;;;;22.92;16.71;98837.78;4881594;29;973;-74
2021/12/23 10:38:38;;;;;;;;;;;;;;;21.79;18.16;98831.47;4862897;29;1035;-74
2021/12/23 10:41:05;;;;;;;;;;;;;;;21.94;17.85;98825.59;4862650;29;992;-73
2021/12/23 10:43:39;;;;;;;;;;;;;;;22.86;16.93;98835.41;4862732;29;1265;-74
2021/12/23 10:46:17;;;;;;;;;;;;;;;21.74;18.08;98833.97;4862837;29;982;-74
2021/12/23 10:48:43;;;;;;;;;;;;;;;21.54;18.54;98831.00;4898554;29;985;-74
2021/12/23 10:51:15;;;;;;;;;;;;;;;22.65;17.44;98823.66;4919006;29;989;-74
2021/12/23 10:59:02;;;;;;;;;;;;;;;21.76;18.17;98826.66;4871867;29;950;-74
2021/12/23 11:01:28;;;;;;;;;;;;;;;22.79;17.28;98817.72;4881131;29;944;-74
2021/12/23 11:03:58;;;;;;;;;;;;;;;22.59;17.13;98820.53;4902320;29;1057;-74
2021/12/23 11:06:33;;;;;;;;;;;;;;;21.99;17.76;98816.63;4843924;29;1106;-74
2021/12/23 11:09:16;;;;;;;;;;;;;;;21.16;18.88;98816.91;4843869;29;1168;-74
2021/12/23 11:41:32;;;;;;;;;;;;;;;22.06;17.98;98773.97;4825567;29;1050;-74
2021/12/23 11:43:59;;;;;;;;;;;;;;;21.53;18.43;98784.09;4825613;29;994;-74
2021/12/23 11:46:30;;;;;;;;;;;;;;;21.75;18.16;98779.72;4858904;29;1027;-74
2021/12/23 11:48:56;;;;;;;;;;;;;;;22.15;17.79;98779.94;4825647;29;1011;-74
2021/12/23 11:51:31;;;;;;;;;;;;;;;21.68;18.18;98768.50;4778467;29;1128;-74
2021/12/23 11:53:57;;;;;;;;;;;;;;;21.55;18.75;98758.97;4803584;29;1066;-74
2021/12/23 11:56:22;;;;;;;;;;;;;;;21.88;18.14;98767.81;4846600;29;1989;-74
2021/12/23 11:58:48;;;;;;;;;;;;;;;22.16;17.74;98764.53;4883786;29;988;-74
2021/12/23 12:01:16;;;;;;;;;;;;;;;21.95;18.11;98753.53;4918003;29;928;-74
2021/12/23 12:03:51;;;;;;;;;;;;;;;21.92;17.84;98757.22;4917594;29;955;-74
2021/12/23 12:06:18;;;;;;;;;;;;;;;21.44;18.37;98747.81;4918268;29;946;-74
2021/12/23 12:08:43;;;;;;;;;;;;;;;21.77;18.02;98748.16;4918014;29;998;-74
2021/12/23 12:11:13;;;;;;;;;;;;;;;21.66;18.12;98759.66;4956455;28;1114;-74
2021/12/23 12:13:38;;;;;;;;;;;;;;;21.74;18.09;98755.47;4955844;29;1034;-74
2021/12/23 12:16:04;;;;;;;;;;;;;;;21.84;17.93;98753.69;4955811;29;1911;-74
2021/12/23 12:18:29;;;;;;;;;;;;;;;21.61;18.29;98760.13;4956259;29;981;-74
2021/12/23 12:20:59;;;;;;;;;;;;;;;22.24;17.65;98748.22;4955538;29;1082;-75
2021/12/23 12:23:32;;;;;;;;;;;;;;;21.66;18.31;98742.66;4973606;28;1133;-74
2021/12/23 12:25:58;;;;;;;;;;;;;;;21.94;18.19;98744.22;4917515;29;1022;-74
2021/12/23 12:28:25;;;;;;;;;;;;;;;21.63;18.55;98740.66;4917570;29;982;-74
2021/12/23 12:30:50;;;;;;;;;;;;;;;21.99;18.14;98743.75;4898589;29;978;-74
2021/12/23 12:33:18;;;;;;;;;;;;;;;21.54;18.63;98746.06;4898420;29;978;-74
2021/12/23 12:36:05;;;;;;;;;;;;;;;21.93;18.29;98742.63;4898265;29;1898;-74
2021/12/23 12:38:37;;;;;;;;;;;;;;;21.55;18.50;98742.00;4898479;29;936;-74
2021/12/23 12:41:13;;;;;;;;;;;;;;;21.70;18.16;98740.53;4845588;29;1309;-74
2021/12/23 12:43:44;;;;;;;;;;;;;;;21.92;18.08;98737.41;4847678;29;977;-74
2021/12/23 12:46:11;;;;;;;;;;;;;;;21.97;18.08;98734.09;4879316;29;1010;-74
2021/12/23 12:48:54;;;;;;;;;;;;;;;21.35;18.86;98735.41;4879643;29;1015;-74
2021/12/23 12:51:21;;;;;;;;;;;;;;;21.96;18.18;98736.09;4879636;29;1077;-74
2021/12/23 12:54:03;;;;;;;;;;;;;;;22.05;18.08;98730.69;4879667;29;985;-74
2021/12/23 12:56:28;;;;;;;;;;;;;;;21.22;19.00;98733.13;4885512;29;1906;-74
2021/12/23 12:58:54;;;;;;;;;;;;;;;22.68;17.48;98732.81;4892911;29;967;-74
2021/12/23 13:01:30;;;;;;;;;;;;;;;22.80;17.25;98739.91;4890271;29;1015;-74
2021/12/23 13:03:55;;;;;;;;;;;;;;;22.02;17.73;98742.88;4917163;29;974;-74
2021/12/23 13:06:21;;;;;;;;;;;;;;;21.74;18.36;98744.13;4879152;29;1570;-74
2021/12/23 13:09:06;;;;;;;;;;;;;;;21.89;18.28;98744.72;4879674;29;894;-74
2021/12/23 13:11:59;;;;;;;;;;;;;;;22.02;17.85;98753.41;4888009;29;1025;-74
2021/12/23 13:14:57;;;;;;;;;;;;;;;21.74;18.45;98746.97;4897951;29;1976;-74
2021/12/23 13:18:06;;;;;;;;;;;;;;;22.18;18.07;98745.09;4939329;29;1378;-74
2021/12/23 13:20:32;;;;;;;;;;;;;;;22.00;18.25;98744.53;4898031;29;993;-74
2021/12/23 13:23:06;;;;;;;;;;;;;;;22.16;17.85;98749.56;4898712;29;1123;-74
2021/12/23 13:25:31;;;;;;;;;;;;;;;22.14;17.94;98749.22;4901743;29;1052;-74
2021/12/23 13:27:59;;;;;;;;;;;;;;;21.97;18.18;98742.59;4864268;29;914;-74
2021/12/23 13:30:25;;;;;;;;;;;;;;;21.73;18.38;98748.19;4864344;29;1094;-74
2021/12/23 13:33:00;;;;;;;;;;;;;;;22.04;18.38;98751.75;4864222;29;1069;-74
2021/12/23 13:35:25;;;;;;;;;;;;;;;22.70;17.48;98741.69;4863653;29;1998;-75
2021/12/23 13:37:51;;;;;;;;;;;;;;;22.22;18.05;98745.78;4890545;29;999;-74
2021/12/23 13:40:26;;;;;;;;;;;;;;;21.50;18.87;98745.28;4901103;29;952;-74
2021/12/23 13:42:52;;;;;;;;;;;;;;;21.83;18.60;98740.78;4901111;29;1058;-74
2021/12/23 13:45:18;;;;;;;;;;;;;;;22.07;18.16;98745.25;4901246;29;1002;-74
2021/12/23 13:47:44;;;;;;;;;;;;;;;21.59;18.71;98737.06;4901477;29;882;-74
2021/12/23 13:50:09;;;;;;;;;;;;;;;21.62;18.49;98735.44;4900821;29;1007;-75
2021/12/23 13:52:37;;;;;;;;;;;;;;;21.20;19.25;98737.63;4882226;29;1127;-74
2021/12/23 13:55:07;;;;;;;;;;;;;;;21.69;18.50;98736.13;4844780;29;1903;-74
2021/12/23 13:57:33;;;;;;;;;;;;;;;21.44;18.80;98727.97;4833568;29;1105;-74
2021/12/23 13:59:59;;;;;;;;;;;;;;;21.82;18.47;98722.16;4862302;29;1007;-74
2021/12/23 14:02:27;;;;;;;;;;;;;;;21.08;19.35;98724.81;4863502;29;1047;-74
2021/12/23 14:04:53;;;;;;;;;;;;;;;20.84;19.70;98728.78;4863790;29;1008;-74
2021/12/23 14:07:23;;;;;;;;;;;;;;;20.79;19.55;98724.38;4895595;29;991;-74
2021/12/23 14:09:49;;;;;;;;;;;;;;;21.60;18.44;98716.03;4900851;29;1065;-74
2021/12/23 14:12:19;;;;;;;;;;;;;;;21.33;18.89;98714.00;4881956;29;971;-74